sensor_id;sensor_type;location;lat;lon;timestamp;temperature;humidity
8666;DHT22;4370;48.916;8.380;2023-12-20T00:02:21;5.40;99.90
8666;DHT22;4370;48.916;8.380;2023-12-20T00:04:47;5.90;99.90
8666;DHT22;4370;48.916;8.380;2023-12-20T00:07:14;5.40;99.90
8666;DHT22;4370;48.916;8.380;2023-12-20T00:09:40;5.50;99.90
8666;DHT22;4370;48.916;8.380;2023-12-20T00:12:06;5.30;99.90
8666;DHT22;4370;48.916;8.380;2023-12-20T00:14:31;5.20;99.90
8666;DHT22;4370;48.916;8.380;2023-12-20T00:16:58;5.70;99.90
8666;DHT22;4370;48.916;8.380;2023-12-20T00:19:24;5.20;99.90
8666;DHT22;4370;48.916;8.380;2023-12-20T00:21:50;5.30;99.90
8666;DHT22;4370;48.916;8.380;2023-12-20T00:24:17;6.00;99.90
8666;DHT22;4370;48.916;8.380;2023-12-20T00:26:43;5.20;99.90
8666;DHT22;4370;48.916;8.380;2023-12-20T00:29:09;5.30;99.90
8666;DHT22;4370;48.916;8.380;2023-12-20T00:31:36;6.20;99.90
8666;DHT22;4370;48.916;8.380;2023-12-20T00:34:07;5.30;99.90
8666;DHT22;4370;48.916;8.380;2023-12-20T00:36:33;5.10;99.90
8666;DHT22;4370;48.916;8.380;2023-12-20T00:38:59;5.30;99.90
8666;DHT22;4370;48.916;8.380;2023-12-20T00:41:24;5.40;99.90
8666;DHT22;4370;48.916;8.380;2023-12-20T00:43:51;5.20;99.90
8666;DHT22;4370;48.916;8.380;2023-12-20T00:46:17;5.20;99.90
8666;DHT22;4370;48.916;8.380;2023-12-20T00:48:44;5.20;99.90
8666;DHT22;4370;48.916;8.380;2023-12-20T00:51:15;5.10;99.90
8666;DHT22;4370;48.916;8.380;2023-12-20T00:53:42;5.10;99.90
8666;DHT22;4370;48.916;8.380;2023-12-20T00:56:08;5.20;99.90
8666;DHT22;4370;48.916;8.380;2023-12-20T00:58:35;5.50;99.90
8666;DHT22;4370;48.916;8.380;2023-12-20T01:01:01;5.00;99.90
8666;DHT22;4370;48.916;8.380;2023-12-20T01:03:27;5.80;99.90
8666;DHT22;4370;48.916;8.380;2023-12-20T01:05:52;5.20;99.90
8666;DHT22;4370;48.916;8.380;2023-12-20T01:08:18;5.30;99.90
8666;DHT22;4370;48.916;8.380;2023-12-20T01:10:44;5.40;99.90
8666;DHT22;4370;48.916;8.380;2023-12-20T01:13:09;5.30;99.90
8666;DHT22;4370;48.916;8.380;2023-12-20T01:15:38;5.40;99.90
8666;DHT22;4370;48.916;8.380;2023-12-20T01:18:04;5.30;99.90
8666;DHT22;4370;48.916;8.380;2023-12-20T01:20:34;5.30;99.90
8666;DHT22;4370;48.916;8.380;2023-12-20T01:23:01;5.30;99.90
8666;DHT22;4370;48.916;8.380;2023-12-20T01:25:29;5.30;99.90
8666;DHT22;4370;48.916;8.380;2023-12-20T01:28:05;5.50;99.90
8666;DHT22;4370;48.916;8.380;2023-12-20T01:30:31;5.40;99.90
8666;DHT22;4370;48.916;8.380;2023-12-20T01:32:57;5.30;99.90
8666;DHT22;4370;48.916;8.380;2023-12-20T01:35:23;5.40;99.90
8666;DHT22;4370;48.916;8.380;2023-12-20T01:37:50;5.30;99.90
8666;DHT22;4370;48.916;8.380;2023-12-20T01:40:17;5.40;99.90
8666;DHT22;4370;48.916;8.380;2023-12-20T01:42:43;5.30;99.90
8666;DHT22;4370;48.916;8.380;2023-12-20T01:45:10;5.30;99.90
8666;DHT22;4370;48.916;8.380;2023-12-20T01:47:36;5.40;99.90
8666;DHT22;4370;48.916;8.380;2023-12-20T01:50:02;5.40;99.90
8666;DHT22;4370;48.916;8.380;2023-12-20T01:52:30;5.60;99.90
8666;DHT22;4370;48.916;8.380;2023-12-20T01:54:57;5.40;99.90
8666;DHT22;4370;48.916;8.380;2023-12-20T01:57:28;4.50;99.90
8666;DHT22;4370;48.916;8.380;2023-12-20T01:59:53;5.50;99.90
8666;DHT22;4370;48.916;8.380;2023-12-20T02:02:20;5.50;99.90
8666;DHT22;4370;48.916;8.380;2023-12-20T02:04:47;5.50;99.90
8666;DHT22;4370;48.916;8.380;2023-12-20T02:07:13;5.50;99.90
8666;DHT22;4370;48.916;8.380;2023-12-20T02:09:39;5.60;99.90
8666;DHT22;4370;48.916;8.380;2023-12-20T02:12:05;5.50;99.90
8666;DHT22;4370;48.916;8.380;2023-12-20T02:14:31;5.40;99.90
8666;DHT22;4370;48.916;8.380;2023-12-20T02:16:59;5.50;99.90
8666;DHT22;4370;48.916;8.380;2023-12-20T02:19:27;5.50;99.90
8666;DHT22;4370;48.916;8.380;2023-12-20T02:22:13;5.40;99.90
8666;DHT22;4370;48.916;8.380;2023-12-20T02:24:40;6.00;99.90
8666;DHT22;4370;48.916;8.380;2023-12-20T02:27:07;5.40;99.90
8666;DHT22;4370;48.916;8.380;2023-12-20T02:29:35;5.40;99.90
8666;DHT22;4370;48.916;8.380;2023-12-20T02:32:07;5.50;99.90
8666;DHT22;4370;48.916;8.380;2023-12-20T02:34:33;5.40;99.90
8666;DHT22;4370;48.916;8.380;2023-12-20T02:36:58;5.40;99.90
8666;DHT22;4370;48.916;8.380;2023-12-20T02:39:25;5.40;99.90
8666;DHT22;4370;48.916;8.380;2023-12-20T02:41:51;5.40;99.90
8666;DHT22;4370;48.916;8.380;2023-12-20T02:44:20;5.40;99.90
8666;DHT22;4370;48.916;8.380;2023-12-20T02:46:45;5.50;99.90
8666;DHT22;4370;48.916;8.380;2023-12-20T02:49:14;5.80;99.90
8666;DHT22;4370;48.916;8.380;2023-12-20T02:51:39;5.50;99.90
8666;DHT22;4370;48.916;8.380;2023-12-20T02:54:05;5.70;99.90
8666;DHT22;4370;48.916;8.380;2023-12-20T02:56:34;5.60;99.90
8666;DHT22;4370;48.916;8.380;2023-12-20T02:59:00;5.10;99.90
8666;DHT22;4370;48.916;8.380;2023-12-20T03:01:26;5.60;99.90
8666;DHT22;4370;48.916;8.380;2023-12-20T03:03:51;5.50;99.90
8666;DHT22;4370;48.916;8.380;2023-12-20T03:06:20;5.50;99.90
8666;DHT22;4370;48.916;8.380;2023-12-20T03:08:46;5.50;99.90
8666;DHT22;4370;48.916;8.380;2023-12-20T03:11:14;5.50;99.90
8666;DHT22;4370;48.916;8.380;2023-12-20T03:13:41;5.50;99.90
8666;DHT22;4370;48.916;8.380;2023-12-20T03:16:19;5.40;99.90
8666;DHT22;4370;48.916;8.380;2023-12-20T03:18:44;5.40;99.90
8666;DHT22;4370;48.916;8.380;2023-12-20T03:21:10;5.50;99.90
8666;DHT22;4370;48.916;8.380;2023-12-20T03:23:35;5.50;99.90
8666;DHT22;4370;48.916;8.380;2023-12-20T03:26:01;5.50;99.90
8666;DHT22;4370;48.916;8.380;2023-12-20T03:28:29;6.10;99.90
8666;DHT22;4370;48.916;8.380;2023-12-20T03:30:55;5.50;99.90
8666;DHT22;4370;48.916;8.380;2023-12-20T03:33:21;5.40;99.90
8666;DHT22;4370;48.916;8.380;2023-12-20T03:35:46;5.50;99.90
8666;DHT22;4370;48.916;8.380;2023-12-20T03:38:12;5.70;99.90
8666;DHT22;4370;48.916;8.380;2023-12-20T03:40:38;5.40;99.90
8666;DHT22;4370;48.916;8.380;2023-12-20T03:43:03;5.50;99.90
8666;DHT22;4370;48.916;8.380;2023-12-20T03:45:30;5.50;99.90
8666;DHT22;4370;48.916;8.380;2023-12-20T03:47:56;5.50;99.90
8666;DHT22;4370;48.916;8.380;2023-12-20T03:50:22;5.50;99.90
8666;DHT22;4370;48.916;8.380;2023-12-20T03:52:49;5.50;99.90
8666;DHT22;4370;48.916;8.380;2023-12-20T03:55:17;5.50;99.90
8666;DHT22;4370;48.916;8.380;2023-12-20T03:57:42;5.50;99.90
8666;DHT22;4370;48.916;8.380;2023-12-20T04:00:10;5.60;99.90
8666;DHT22;4370;48.916;8.380;2023-12-20T04:02:39;5.60;99.90
8666;DHT22;4370;48.916;8.380;2023-12-20T04:05:06;5.60;99.90
8666;DHT22;4370;48.916;8.380;2023-12-20T04:07:32;5.60;99.90
8666;DHT22;4370;48.916;8.380;2023-12-20T04:09:58;5.70;99.90
8666;DHT22;4370;48.916;8.380;2023-12-20T04:12:23;5.60;99.90
8666;DHT22;4370;48.916;8.380;2023-12-20T04:14:49;5.80;99.90
8666;DHT22;4370;48.916;8.380;2023-12-20T04:17:16;5.70;99.90
8666;DHT22;4370;48.916;8.380;2023-12-20T04:19:43;5.70;99.90
8666;DHT22;4370;48.916;8.380;2023-12-20T04:22:09;5.60;99.90
8666;DHT22;4370;48.916;8.380;2023-12-20T04:24:35;5.60;99.90
8666;DHT22;4370;48.916;8.380;2023-12-20T04:27:02;5.70;99.90
8666;DHT22;4370;48.916;8.380;2023-12-20T04:29:29;5.20;99.90
8666;DHT22;4370;48.916;8.380;2023-12-20T04:31:56;5.70;99.90
8666;DHT22;4370;48.916;8.380;2023-12-20T04:34:22;5.80;99.90
8666;DHT22;4370;48.916;8.380;2023-12-20T04:36:48;5.60;99.90
8666;DHT22;4370;48.916;8.380;2023-12-20T04:39:14;5.50;99.90
8666;DHT22;4370;48.916;8.380;2023-12-20T04:41:41;5.60;99.90
8666;DHT22;4370;48.916;8.380;2023-12-20T04:44:06;5.70;99.90
8666;DHT22;4370;48.916;8.380;2023-12-20T04:46:33;5.60;99.90
8666;DHT22;4370;48.916;8.380;2023-12-20T04:48:59;5.70;99.90
8666;DHT22;4370;48.916;8.380;2023-12-20T04:51:24;5.60;99.90
8666;DHT22;4370;48.916;8.380;2023-12-20T04:53:51;5.70;99.90
8666;DHT22;4370;48.916;8.380;2023-12-20T04:56:16;5.70;99.90
8666;DHT22;4370;48.916;8.380;2023-12-20T04:58:42;5.60;99.90
8666;DHT22;4370;48.916;8.380;2023-12-20T05:01:08;5.70;99.90
8666;DHT22;4370;48.916;8.380;2023-12-20T05:03:37;5.70;99.90
8666;DHT22;4370;48.916;8.380;2023-12-20T05:06:03;5.70;99.90
8666;DHT22;4370;48.916;8.380;2023-12-20T05:08:29;5.70;99.90
8666;DHT22;4370;48.916;8.380;2023-12-20T05:10:55;5.70;99.90
8666;DHT22;4370;48.916;8.380;2023-12-20T05:13:23;5.70;99.90
8666;DHT22;4370;48.916;8.380;2023-12-20T05:15:49;6.10;99.90
8666;DHT22;4370;48.916;8.380;2023-12-20T05:18:15;6.00;99.90
8666;DHT22;4370;48.916;8.380;2023-12-20T05:20:40;5.80;99.90
8666;DHT22;4370;48.916;8.380;2023-12-20T05:23:06;5.80;99.90
8666;DHT22;4370;48.916;8.380;2023-12-20T05:25:33;5.80;99.90
8666;DHT22;4370;48.916;8.380;2023-12-20T05:28:08;5.80;99.90
8666;DHT22;4370;48.916;8.380;2023-12-20T05:30:33;5.70;99.90
8666;DHT22;4370;48.916;8.380;2023-12-20T05:32:59;5.80;99.90
8666;DHT22;4370;48.916;8.380;2023-12-20T05:35:25;5.80;99.90
8666;DHT22;4370;48.916;8.380;2023-12-20T05:37:50;5.80;99.90
8666;DHT22;4370;48.916;8.380;2023-12-20T05:40:16;5.80;99.90
8666;DHT22;4370;48.916;8.380;2023-12-20T05:42:43;6.00;99.90
8666;DHT22;4370;48.916;8.380;2023-12-20T05:45:10;6.80;99.90
8666;DHT22;4370;48.916;8.380;2023-12-20T05:47:39;5.80;99.90
8666;DHT22;4370;48.916;8.380;2023-12-20T05:50:05;5.80;99.90
8666;DHT22;4370;48.916;8.380;2023-12-20T05:52:31;5.80;99.90
8666;DHT22;4370;48.916;8.380;2023-12-20T05:54:57;6.90;99.90
8666;DHT22;4370;48.916;8.380;2023-12-20T05:57:26;5.80;99.90
8666;DHT22;4370;48.916;8.380;2023-12-20T05:59:53;5.80;99.90
8666;DHT22;4370;48.916;8.380;2023-12-20T06:02:19;5.70;99.90
8666;DHT22;4370;48.916;8.380;2023-12-20T06:04:45;5.80;99.90
8666;DHT22;4370;48.916;8.380;2023-12-20T06:07:16;5.60;99.90
8666;DHT22;4370;48.916;8.380;2023-12-20T06:09:42;5.70;99.90
8666;DHT22;4370;48.916;8.380;2023-12-20T06:12:08;5.80;99.90
8666;DHT22;4370;48.916;8.380;2023-12-20T06:14:34;5.90;99.90
8666;DHT22;4370;48.916;8.380;2023-12-20T06:17:00;5.80;99.90
8666;DHT22;4370;48.916;8.380;2023-12-20T06:19:26;5.80;99.90
8666;DHT22;4370;48.916;8.380;2023-12-20T06:21:52;5.70;99.90
8666;DHT22;4370;48.916;8.380;2023-12-20T06:24:17;5.80;99.90
8666;DHT22;4370;48.916;8.380;2023-12-20T06:26:43;5.80;99.90
8666;DHT22;4370;48.916;8.380;2023-12-20T06:29:09;5.80;99.90
8666;DHT22;4370;48.916;8.380;2023-12-20T06:31:35;5.70;99.90
8666;DHT22;4370;48.916;8.380;2023-12-20T06:34:03;5.70;99.90
8666;DHT22;4370;48.916;8.380;2023-12-20T06:36:30;5.60;99.90
8666;DHT22;4370;48.916;8.380;2023-12-20T06:38:56;5.80;99.90
8666;DHT22;4370;48.916;8.380;2023-12-20T06:41:22;5.80;99.90
8666;DHT22;4370;48.916;8.380;2023-12-20T06:43:49;5.80;99.90
8666;DHT22;4370;48.916;8.380;2023-12-20T06:46:15;5.70;99.90
8666;DHT22;4370;48.916;8.380;2023-12-20T06:48:42;5.70;99.90
8666;DHT22;4370;48.916;8.380;2023-12-20T06:51:15;5.70;99.90
8666;DHT22;4370;48.916;8.380;2023-12-20T06:53:40;5.70;99.90
8666;DHT22;4370;48.916;8.380;2023-12-20T06:56:08;5.80;99.90
8666;DHT22;4370;48.916;8.380;2023-12-20T06:58:34;5.70;99.90
8666;DHT22;4370;48.916;8.380;2023-12-20T07:01:01;5.70;99.90
8666;DHT22;4370;48.916;8.380;2023-12-20T07:03:27;5.70;99.90
8666;DHT22;4370;48.916;8.380;2023-12-20T07:05:53;5.70;99.90
8666;DHT22;4370;48.916;8.380;2023-12-20T07:08:18;5.70;99.90
8666;DHT22;4370;48.916;8.380;2023-12-20T07:10:46;5.50;99.90
8666;DHT22;4370;48.916;8.380;2023-12-20T07:13:11;5.60;99.90
8666;DHT22;4370;48.916;8.380;2023-12-20T07:15:39;5.70;99.90
8666;DHT22;4370;48.916;8.380;2023-12-20T07:18:05;5.70;99.90
8666;DHT22;4370;48.916;8.380;2023-12-20T07:20:33;6.00;99.90
8666;DHT22;4370;48.916;8.380;2023-12-20T07:22:59;5.70;99.90
8666;DHT22;4370;48.916;8.380;2023-12-20T07:27:52;5.60;99.90
8666;DHT22;4370;48.916;8.380;2023-12-20T07:30:18;5.50;99.90
8666;DHT22;4370;48.916;8.380;2023-12-20T07:32:43;5.40;99.90
8666;DHT22;4370;48.916;8.380;2023-12-20T07:35:09;5.00;99.90
8666;DHT22;4370;48.916;8.380;2023-12-20T07:37:35;5.20;99.90
8666;DHT22;4370;48.916;8.380;2023-12-20T07:40:01;5.20;99.90
8666;DHT22;4370;48.916;8.380;2023-12-20T07:42:26;5.20;99.90
8666;DHT22;4370;48.916;8.380;2023-12-20T07:44:52;5.10;99.90
8666;DHT22;4370;48.916;8.380;2023-12-20T07:47:17;5.10;99.90
8666;DHT22;4370;48.916;8.380;2023-12-20T07:49:48;5.00;99.90
8666;DHT22;4370;48.916;8.380;2023-12-20T07:52:14;5.00;99.90
8666;DHT22;4370;48.916;8.380;2023-12-20T07:54:40;5.10;99.90
8666;DHT22;4370;48.916;8.380;2023-12-20T07:57:05;5.00;99.90
8666;DHT22;4370;48.916;8.380;2023-12-20T07:59:32;4.90;99.90
8666;DHT22;4370;48.916;8.380;2023-12-20T08:01:57;4.90;99.90
8666;DHT22;4370;48.916;8.380;2023-12-20T08:04:23;5.00;99.90
8666;DHT22;4370;48.916;8.380;2023-12-20T08:06:51;4.90;99.90
8666;DHT22;4370;48.916;8.380;2023-12-20T08:09:17;4.80;99.90
8666;DHT22;4370;48.916;8.380;2023-12-20T08:11:46;4.80;99.90
8666;DHT22;4370;48.916;8.380;2023-12-20T08:14:12;5.40;99.90
8666;DHT22;4370;48.916;8.380;2023-12-20T08:16:41;5.40;99.90
8666;DHT22;4370;48.916;8.380;2023-12-20T08:19:10;4.70;99.90
8666;DHT22;4370;48.916;8.380;2023-12-20T08:21:41;4.70;99.90
8666;DHT22;4370;48.916;8.380;2023-12-20T08:24:09;4.50;99.90
8666;DHT22;4370;48.916;8.380;2023-12-20T08:26:34;4.50;99.90
8666;DHT22;4370;48.916;8.380;2023-12-20T08:29:00;5.20;99.90
8666;DHT22;4370;48.916;8.380;2023-12-20T08:31:27;4.60;99.90
8666;DHT22;4370;48.916;8.380;2023-12-20T08:33:52;4.30;99.90
8666;DHT22;4370;48.916;8.380;2023-12-20T08:36:19;4.30;99.90
8666;DHT22;4370;48.916;8.380;2023-12-20T08:38:48;4.30;99.90
8666;DHT22;4370;48.916;8.380;2023-12-20T08:41:23;4.30;99.90
8666;DHT22;4370;48.916;8.380;2023-12-20T08:43:52;4.30;99.90
8666;DHT22;4370;48.916;8.380;2023-12-20T08:46:18;4.30;99.90
8666;DHT22;4370;48.916;8.380;2023-12-20T08:48:45;4.40;99.90
8666;DHT22;4370;48.916;8.380;2023-12-20T08:51:10;4.40;99.90
8666;DHT22;4370;48.916;8.380;2023-12-20T08:53:36;4.50;99.90
8666;DHT22;4370;48.916;8.380;2023-12-20T08:56:02;4.40;99.90
8666;DHT22;4370;48.916;8.380;2023-12-20T08:58:28;4.30;99.90
8666;DHT22;4370;48.916;8.380;2023-12-20T09:00:54;4.50;99.90
8666;DHT22;4370;48.916;8.380;2023-12-20T09:03:19;4.70;99.90
8666;DHT22;4370;48.916;8.380;2023-12-20T09:05:45;4.70;99.90
8666;DHT22;4370;48.916;8.380;2023-12-20T09:08:11;4.50;99.90
8666;DHT22;4370;48.916;8.380;2023-12-20T09:10:38;4.70;99.90
8666;DHT22;4370;48.916;8.380;2023-12-20T09:13:03;4.70;99.90
8666;DHT22;4370;48.916;8.380;2023-12-20T09:15:29;4.80;99.90
8666;DHT22;4370;48.916;8.380;2023-12-20T09:17:55;4.90;99.90
8666;DHT22;4370;48.916;8.380;2023-12-20T09:20:21;5.10;99.90
8666;DHT22;4370;48.916;8.380;2023-12-20T09:22:50;5.30;99.90
8666;DHT22;4370;48.916;8.380;2023-12-20T09:25:16;5.40;99.90
8666;DHT22;4370;48.916;8.380;2023-12-20T09:27:43;5.60;99.90
8666;DHT22;4370;48.916;8.380;2023-12-20T09:30:12;5.70;99.90
8666;DHT22;4370;48.916;8.380;2023-12-20T09:32:37;5.80;99.90
8666;DHT22;4370;48.916;8.380;2023-12-20T09:35:05;5.90;99.90
8666;DHT22;4370;48.916;8.380;2023-12-20T09:37:31;5.90;99.90
8666;DHT22;4370;48.916;8.380;2023-12-20T09:39:57;5.80;99.90
8666;DHT22;4370;48.916;8.380;2023-12-20T09:45:10;6.20;99.90
8666;DHT22;4370;48.916;8.380;2023-12-20T09:47:39;6.30;99.90
8666;DHT22;4370;48.916;8.380;2023-12-20T09:50:05;6.30;99.90
8666;DHT22;4370;48.916;8.380;2023-12-20T09:52:33;6.40;99.90
8666;DHT22;4370;48.916;8.380;2023-12-20T09:55:00;6.40;99.90
8666;DHT22;4370;48.916;8.380;2023-12-20T09:57:27;6.50;99.90
8666;DHT22;4370;48.916;8.380;2023-12-20T09:59:55;6.60;99.90
8666;DHT22;4370;48.916;8.380;2023-12-20T10:02:25;6.70;99.90
8666;DHT22;4370;48.916;8.380;2023-12-20T10:04:55;6.60;99.90
8666;DHT22;4370;48.916;8.380;2023-12-20T10:07:21;6.60;99.90
8666;DHT22;4370;48.916;8.380;2023-12-20T10:09:47;6.60;99.90
8666;DHT22;4370;48.916;8.380;2023-12-20T10:12:13;6.50;99.90
8666;DHT22;4370;48.916;8.380;2023-12-20T10:14:39;6.60;99.90
8666;DHT22;4370;48.916;8.380;2023-12-20T10:17:09;6.50;99.90
8666;DHT22;4370;48.916;8.380;2023-12-20T10:19:37;6.90;99.90
8666;DHT22;4370;48.916;8.380;2023-12-20T10:22:07;6.70;99.90
8666;DHT22;4370;48.916;8.380;2023-12-20T10:24:32;6.70;99.90
8666;DHT22;4370;48.916;8.380;2023-12-20T10:27:10;6.70;99.90
8666;DHT22;4370;48.916;8.380;2023-12-20T10:29:36;6.60;99.90
8666;DHT22;4370;48.916;8.380;2023-12-20T10:32:21;6.60;99.90
8666;DHT22;4370;48.916;8.380;2023-12-20T10:34:48;6.70;99.90
8666;DHT22;4370;48.916;8.380;2023-12-20T10:37:14;6.60;99.90
8666;DHT22;4370;48.916;8.380;2023-12-20T10:39:40;6.70;99.90
8666;DHT22;4370;48.916;8.380;2023-12-20T10:42:12;8.40;99.90
8666;DHT22;4370;48.916;8.380;2023-12-20T10:44:38;6.60;99.90
8666;DHT22;4370;48.916;8.380;2023-12-20T10:47:06;6.60;99.90
8666;DHT22;4370;48.916;8.380;2023-12-20T10:49:36;6.60;99.90
8666;DHT22;4370;48.916;8.380;2023-12-20T10:52:03;6.80;99.90
8666;DHT22;4370;48.916;8.380;2023-12-20T10:54:29;6.60;99.90
8666;DHT22;4370;48.916;8.380;2023-12-20T10:56:56;6.60;99.90
8666;DHT22;4370;48.916;8.380;2023-12-20T10:59:23;6.60;99.90
8666;DHT22;4370;48.916;8.380;2023-12-20T11:01:50;6.60;99.90
8666;DHT22;4370;48.916;8.380;2023-12-20T11:04:20;6.70;99.90
8666;DHT22;4370;48.916;8.380;2023-12-20T11:06:56;6.80;99.90
8666;DHT22;4370;48.916;8.380;2023-12-20T11:09:31;7.00;99.90
8666;DHT22;4370;48.916;8.380;2023-12-20T11:14:46;7.00;99.90
8666;DHT22;4370;48.916;8.380;2023-12-20T11:17:12;7.00;99.90
8666;DHT22;4370;48.916;8.380;2023-12-20T11:22:29;7.00;99.90
8666;DHT22;4370;48.916;8.380;2023-12-20T11:25:05;7.20;99.90
8666;DHT22;4370;48.916;8.380;2023-12-20T11:27:34;7.20;99.90
8666;DHT22;4370;48.916;8.380;2023-12-20T11:30:05;7.20;99.90
8666;DHT22;4370;48.916;8.380;2023-12-20T11:35:18;7.00;99.90
8666;DHT22;4370;48.916;8.380;2023-12-20T11:37:45;7.30;99.90
8666;DHT22;4370;48.916;8.380;2023-12-20T11:40:17;7.30;99.90
8666;DHT22;4370;48.916;8.380;2023-12-20T11:42:45;7.10;99.90
8666;DHT22;4370;48.916;8.380;2023-12-20T11:45:17;7.10;99.90
8666;DHT22;4370;48.916;8.380;2023-12-20T11:47:46;7.20;99.90
8666;DHT22;4370;48.916;8.380;2023-12-20T11:50:12;7.20;99.90
8666;DHT22;4370;48.916;8.380;2023-12-20T11:52:38;7.20;99.90
8666;DHT22;4370;48.916;8.380;2023-12-20T11:55:04;6.70;99.90
8666;DHT22;4370;48.916;8.380;2023-12-20T11:57:34;7.00;99.90
8666;DHT22;4370;48.916;8.380;2023-12-20T12:00:02;7.00;99.90
8666;DHT22;4370;48.916;8.380;2023-12-20T12:02:27;7.10;99.90
8666;DHT22;4370;48.916;8.380;2023-12-20T12:04:55;7.00;99.90
8666;DHT22;4370;48.916;8.380;2023-12-20T12:10:20;7.10;99.90
8666;DHT22;4370;48.916;8.380;2023-12-20T12:12:46;6.90;99.90
8666;DHT22;4370;48.916;8.380;2023-12-20T12:15:12;7.10;99.90
8666;DHT22;4370;48.916;8.380;2023-12-20T12:17:39;7.10;99.90
8666;DHT22;4370;48.916;8.380;2023-12-20T12:20:06;7.10;99.90
8666;DHT22;4370;48.916;8.380;2023-12-20T12:22:32;7.40;99.90
8666;DHT22;4370;48.916;8.380;2023-12-20T12:24:59;7.40;99.90
8666;DHT22;4370;48.916;8.380;2023-12-20T12:27:35;7.40;99.90
8666;DHT22;4370;48.916;8.380;2023-12-20T12:30:06;7.40;99.90
8666;DHT22;4370;48.916;8.380;2023-12-20T12:32:33;7.40;99.90
8666;DHT22;4370;48.916;8.380;2023-12-20T12:34:58;7.40;99.90
8666;DHT22;4370;48.916;8.380;2023-12-20T12:37:24;7.40;99.90
8666;DHT22;4370;48.916;8.380;2023-12-20T12:39:53;7.50;99.90
8666;DHT22;4370;48.916;8.380;2023-12-20T12:42:20;7.60;99.90
8666;DHT22;4370;48.916;8.380;2023-12-20T12:44:47;7.30;99.90
8666;DHT22;4370;48.916;8.380;2023-12-20T12:47:14;7.20;99.90
8666;DHT22;4370;48.916;8.380;2023-12-20T12:49:40;7.20;99.90
8666;DHT22;4370;48.916;8.380;2023-12-20T12:52:06;7.10;99.90
8666;DHT22;4370;48.916;8.380;2023-12-20T12:54:33;7.10;99.90
8666;DHT22;4370;48.916;8.380;2023-12-20T12:57:00;7.00;99.90
8666;DHT22;4370;48.916;8.380;2023-12-20T12:59:25;6.80;99.90
8666;DHT22;4370;48.916;8.380;2023-12-20T13:01:51;6.80;99.90
8666;DHT22;4370;48.916;8.380;2023-12-20T13:04:18;6.80;99.90
8666;DHT22;4370;48.916;8.380;2023-12-20T13:06:49;6.60;99.90
8666;DHT22;4370;48.916;8.380;2023-12-20T13:09:16;6.60;99.90
8666;DHT22;4370;48.916;8.380;2023-12-20T13:11:41;6.50;99.90
8666;DHT22;4370;48.916;8.380;2023-12-20T13:14:07;6.50;99.90
8666;DHT22;4370;48.916;8.380;2023-12-20T13:16:36;6.60;99.90
8666;DHT22;4370;48.916;8.380;2023-12-20T13:19:01;6.40;99.90
8666;DHT22;4370;48.916;8.380;2023-12-20T13:21:27;6.30;99.90
8666;DHT22;4370;48.916;8.380;2023-12-20T13:23:54;6.40;99.90
8666;DHT22;4370;48.916;8.380;2023-12-20T13:26:20;6.30;99.90
8666;DHT22;4370;48.916;8.380;2023-12-20T13:28:46;6.50;99.90
8666;DHT22;4370;48.916;8.380;2023-12-20T13:31:21;6.40;99.90
8666;DHT22;4370;48.916;8.380;2023-12-20T13:33:51;6.40;99.90
8666;DHT22;4370;48.916;8.380;2023-12-20T13:36:20;6.40;99.90
8666;DHT22;4370;48.916;8.380;2023-12-20T13:38:49;6.40;99.90
8666;DHT22;4370;48.916;8.380;2023-12-20T13:41:15;6.40;99.90
8666;DHT22;4370;48.916;8.380;2023-12-20T13:43:41;6.50;99.90
8666;DHT22;4370;48.916;8.380;2023-12-20T13:46:08;6.50;99.90
8666;DHT22;4370;48.916;8.380;2023-12-20T13:48:34;6.50;99.90
8666;DHT22;4370;48.916;8.380;2023-12-20T13:51:02;6.60;99.90
8666;DHT22;4370;48.916;8.380;2023-12-20T13:53:39;6.70;99.90
8666;DHT22;4370;48.916;8.380;2023-12-20T13:56:05;6.50;99.90
8666;DHT22;4370;48.916;8.380;2023-12-20T13:58:31;6.40;99.90
8666;DHT22;4370;48.916;8.380;2023-12-20T14:00:56;6.40;99.90
8666;DHT22;4370;48.916;8.380;2023-12-20T14:03:29;6.50;99.90
8666;DHT22;4370;48.916;8.380;2023-12-20T14:05:57;6.40;99.90
8666;DHT22;4370;48.916;8.380;2023-12-20T14:14:07;6.40;99.90
8666;DHT22;4370;48.916;8.380;2023-12-20T14:16:34;6.40;99.90
8666;DHT22;4370;48.916;8.380;2023-12-20T14:19:12;6.90;99.90
8666;DHT22;4370;48.916;8.380;2023-12-20T14:21:38;6.40;99.90
8666;DHT22;4370;48.916;8.380;2023-12-20T14:24:04;6.30;99.90
8666;DHT22;4370;48.916;8.380;2023-12-20T14:26:30;6.30;99.90
8666;DHT22;4370;48.916;8.380;2023-12-20T14:28:56;6.40;99.90
8666;DHT22;4370;48.916;8.380;2023-12-20T14:31:25;6.30;99.90
8666;DHT22;4370;48.916;8.380;2023-12-20T14:33:53;6.30;99.90
8666;DHT22;4370;48.916;8.380;2023-12-20T14:36:19;6.30;99.90
8666;DHT22;4370;48.916;8.380;2023-12-20T14:41:31;6.30;99.90
8666;DHT22;4370;48.916;8.380;2023-12-20T14:50:56;6.30;99.90
8666;DHT22;4370;48.916;8.380;2023-12-20T14:53:22;6.00;99.90
8666;DHT22;4370;48.916;8.380;2023-12-20T14:55:48;6.10;99.90
8666;DHT22;4370;48.916;8.380;2023-12-20T14:58:27;6.10;99.90
8666;DHT22;4370;48.916;8.380;2023-12-20T15:03:23;5.90;99.90
8666;DHT22;4370;48.916;8.380;2023-12-20T15:05:48;5.90;99.90
8666;DHT22;4370;48.916;8.380;2023-12-20T15:08:19;5.90;99.90
8666;DHT22;4370;48.916;8.380;2023-12-20T15:10:47;5.90;99.90
8666;DHT22;4370;48.916;8.380;2023-12-20T15:16:12;6.00;99.90
8666;DHT22;4370;48.916;8.380;2023-12-20T15:18:44;5.90;99.90
8666;DHT22;4370;48.916;8.380;2023-12-20T15:24:12;5.80;99.90
8666;DHT22;4370;48.916;8.380;2023-12-20T15:26:53;5.80;99.90
8666;DHT22;4370;48.916;8.380;2023-12-20T15:29:19;5.90;99.90
8666;DHT22;4370;48.916;8.380;2023-12-20T15:39:06;5.80;99.90
8666;DHT22;4370;48.916;8.380;2023-12-20T15:44:20;5.90;99.90
8666;DHT22;4370;48.916;8.380;2023-12-20T15:46:54;6.00;99.90
8666;DHT22;4370;48.916;8.380;2023-12-20T15:49:21;5.90;99.90
8666;DHT22;4370;48.916;8.380;2023-12-20T15:58:09;5.90;99.90
8666;DHT22;4370;48.916;8.380;2023-12-20T16:03:51;5.80;99.90
8666;DHT22;4370;48.916;8.380;2023-12-20T16:06:17;6.10;99.90
8666;DHT22;4370;48.916;8.380;2023-12-20T16:08:46;6.20;99.90
8666;DHT22;4370;48.916;8.380;2023-12-20T16:11:11;6.00;99.90
8666;DHT22;4370;48.916;8.380;2023-12-20T16:13:37;6.10;99.90
8666;DHT22;4370;48.916;8.380;2023-12-20T16:16:03;5.90;99.90
8666;DHT22;4370;48.916;8.380;2023-12-20T16:18:30;5.80;99.90
8666;DHT22;4370;48.916;8.380;2023-12-20T16:20:57;5.80;99.90
8666;DHT22;4370;48.916;8.380;2023-12-20T16:23:32;5.80;99.90
8666;DHT22;4370;48.916;8.380;2023-12-20T16:25:58;5.90;99.90
8666;DHT22;4370;48.916;8.380;2023-12-20T16:28:29;5.70;99.90
8666;DHT22;4370;48.916;8.380;2023-12-20T16:33:51;5.80;99.90
8666;DHT22;4370;48.916;8.380;2023-12-20T16:49:04;5.80;99.90
8666;DHT22;4370;48.916;8.380;2023-12-20T16:55:00;6.00;99.90
8666;DHT22;4370;48.916;8.380;2023-12-20T16:57:29;5.70;99.90
8666;DHT22;4370;48.916;8.380;2023-12-20T17:00:01;5.80;99.90
8666;DHT22;4370;48.916;8.380;2023-12-20T17:19:17;5.90;99.90
8666;DHT22;4370;48.916;8.380;2023-12-20T17:21:48;6.10;99.90
8666;DHT22;4370;48.916;8.380;2023-12-20T17:24:27;6.30;99.90
8666;DHT22;4370;48.916;8.380;2023-12-20T17:26:54;6.00;99.90
8666;DHT22;4370;48.916;8.380;2023-12-20T17:29:22;6.10;99.90
8666;DHT22;4370;48.916;8.380;2023-12-20T17:32:10;6.00;99.90
8666;DHT22;4370;48.916;8.380;2023-12-20T17:34:56;6.00;99.90
8666;DHT22;4370;48.916;8.380;2023-12-20T17:37:28;6.00;99.90
8666;DHT22;4370;48.916;8.380;2023-12-20T17:58:35;6.30;99.90
8666;DHT22;4370;48.916;8.380;2023-12-20T18:04:28;6.20;99.90
8666;DHT22;4370;48.916;8.380;2023-12-20T18:06:54;6.30;99.90
8666;DHT22;4370;48.916;8.380;2023-12-20T18:12:09;6.20;99.90
8666;DHT22;4370;48.916;8.380;2023-12-20T18:14:42;6.20;99.90
8666;DHT22;4370;48.916;8.380;2023-12-20T18:17:09;6.20;99.90
8666;DHT22;4370;48.916;8.380;2023-12-20T18:23:12;6.20;99.90